Aeroporto :
LOGIN :

Iscrizione | Disclaimer

   EN    FR    IT 

 










Sommario :    VFR   VFR Marginale   IFR   IFR Intensivo   IFR Molto Intensivo
Visibilità : 
Base nubi : 
>= 8 km
>= 3000ft
5 / 8 km
1000 / 3000 ft
1500m / 5 km
500 / 1000 ft
800 / 1500m
200 / 500 ft
< 800m
< 200 ft
Simboli :   Temporali  Nebbia  Neve Forte  Precipitazioni Forti  Vento > 20 kt
SIGMETs :   Varie  Temporali  Ghiacco  Turbolenza  Onda orograficha  Ceneri Vulcaniche







- Altitudine del aeroporto : 1197 ft
- Codice IATA : SPM


ETAD - Spangdahlem Ab

ULTIMO METAR :
  • 181956Z AUTO 04006KT 9000 BR CLR 10/09 A3020 RMK AO2 SLP218 T01040092 $

METARs OBSOLETI :
  • 181856Z AUTO 07005KT 9999 CLR 11/10 A3020 RMK AO2 SLP218 T01090095 $
  • 181756Z AUTO 05006KT 9999 CLR 11/09 A3019 RMK AO2 SLP216 T01090090 10165 20109 52002 $

TAF TAF ETAD
Valido dal 18 a 20 ore il 20 a 02 ore UTC


182002Z 1820/2002 05006KT 9999 FEW020 QNH3019INS
BECMG 1903/1904 06006KT 5000 BR BKN020 QNH3021INS
BECMG 1909/1910 05006KT 8000 BR BKN020 QNH3023INS
BECMG 1912/1913 05009KT 9999 NSW BKN020 QNH3025INS TX14/1914Z TN08/1904Z LAST NO AMDS AFT 1820 NEXT 1904
Nessun NOTAM noto per questo aeroporto.



MetMap, La meteo Aeronautica in un colpo d'occhio ! - Copyright ORBIFLY Dicembre 2007 - Disclaimer

ORBIFLY MET'MAP TEAM :

Programmazione e sviluppo : Alexandra Zaïnal
Concezione e sviluppo : Baudouin d'Aumeries
Co-Programmazione e sviluppo : Marc-Olivier Méhu
Supporto tecnico e logistico : Manuel Goepfert
Aiuto per la traduzione : Arnaldo La Scala

Contatto : metmap@orbifly.com




FONTI E CREDITI :

   NOAA